createdAt,value
2019-03-23T00:00:12.256Z,2.43
2019-03-23T00:02:41.260Z,2.83
2019-03-23T00:05:10.415Z,2.93
2019-03-23T00:07:39.115Z,3.00
2019-03-23T00:10:08.509Z,2.67
2019-03-23T00:12:37.192Z,2.90
2019-03-23T00:15:06.830Z,2.60
2019-03-23T00:17:35.610Z,2.13
2019-03-23T00:20:04.678Z,2.90
2019-03-23T00:22:33.315Z,2.80
2019-03-23T00:25:02.331Z,2.80
2019-03-23T00:27:31.028Z,3.00
2019-03-23T00:29:59.958Z,2.83
2019-03-23T00:32:28.663Z,3.03
2019-03-23T00:34:57.276Z,2.47
2019-03-23T00:37:25.972Z,2.57
2019-03-23T00:39:54.616Z,2.47
2019-03-23T00:42:23.318Z,2.70
2019-03-23T00:44:51.965Z,2.57
2019-03-23T00:47:20.650Z,2.37
2019-03-23T00:49:49.274Z,2.30
2019-03-23T00:52:17.892Z,2.63
2019-03-23T00:54:46.552Z,1.83
2019-03-23T00:57:15.172Z,2.13
2019-03-23T00:59:43.804Z,2.70
2019-03-23T01:02:12.521Z,2.57
2019-03-23T01:04:41.152Z,2.90
2019-03-23T01:07:09.856Z,2.33
2019-03-23T01:09:38.486Z,2.57
2019-03-23T01:12:07.184Z,2.43
2019-03-23T01:14:35.809Z,2.10
2019-03-23T01:17:04.516Z,2.30
2019-03-23T01:19:33.177Z,2.30
2019-03-23T01:22:01.795Z,2.33
2019-03-23T01:24:30.424Z,2.37
2019-03-23T01:26:59.456Z,2.57
2019-03-23T01:29:28.160Z,2.50
2019-03-23T01:31:56.796Z,2.40
2019-03-23T01:34:25.430Z,3.00
2019-03-23T01:37:02.448Z,2.33
2019-03-23T01:39:24.957Z,2.20
2019-03-23T01:41:53.572Z,2.40
2019-03-23T01:44:22.250Z,2.13
2019-03-23T01:46:50.892Z,2.23
2019-03-23T01:49:19.600Z,2.00
2019-03-23T01:51:48.310Z,1.90
2019-03-23T01:54:16.958Z,2.10
2019-03-23T01:56:45.655Z,2.00
2019-03-23T01:59:14.270Z,2.70
2019-03-23T02:01:42.895Z,2.20
2019-03-23T02:04:11.519Z,2.40
2019-03-23T02:06:40.281Z,2.00
2019-03-23T02:09:09.076Z,2.37
2019-03-23T02:11:37.720Z,3.10
2019-03-23T02:14:06.419Z,2.60
2019-03-23T02:16:35.057Z,2.33
2019-03-23T02:19:03.761Z,2.43
2019-03-23T02:21:32.629Z,2.03
2019-03-23T02:24:01.333Z,2.40
2019-03-23T02:26:30.049Z,2.40
2019-03-23T02:28:58.747Z,2.17
2019-03-23T02:31:27.386Z,2.70
2019-03-23T02:33:56.007Z,2.73
2019-03-23T02:36:24.637Z,2.43
2019-03-23T02:38:53.273Z,2.57
2019-03-23T02:41:21.921Z,2.53
2019-03-23T02:43:50.558Z,2.70
2019-03-23T02:46:19.194Z,2.37
2019-03-23T02:48:47.810Z,2.40
2019-03-23T02:51:16.468Z,2.00
2019-03-23T02:54:04.402Z,2.07
2019-03-23T02:56:33.035Z,2.40
2019-03-23T02:59:01.896Z,2.50
2019-03-23T03:01:30.616Z,2.30
2019-03-23T03:03:59.528Z,2.20
2019-03-23T03:06:28.278Z,2.00
2019-03-23T03:08:56.909Z,2.40
2019-03-23T03:11:25.781Z,2.13
2019-03-23T03:13:54.404Z,2.30
2019-03-23T03:16:23.120Z,1.83
2019-03-23T03:18:51.735Z,2.10
2019-03-23T03:21:20.371Z,2.10
2019-03-23T03:23:49.071Z,2.47
2019-03-23T03:26:17.743Z,2.50
2019-03-23T03:28:46.450Z,1.90
2019-03-23T03:31:15.087Z,2.40
2019-03-23T03:33:43.727Z,2.00
2019-03-23T03:36:12.465Z,2.53
2019-03-23T03:38:41.092Z,2.40
2019-03-23T03:41:09.815Z,2.50
2019-03-23T03:43:38.459Z,2.47
2019-03-23T03:46:07.155Z,2.50
2019-03-23T03:48:35.797Z,2.60
2019-03-23T03:51:04.490Z,2.77
2019-03-23T03:53:33.204Z,2.40
2019-03-23T03:56:02.095Z,2.40
2019-03-23T03:58:30.732Z,2.63
2019-03-23T04:00:59.353Z,2.63
2019-03-23T04:03:28.009Z,2.40
2019-03-23T04:05:56.751Z,2.00
2019-03-23T04:08:25.369Z,2.13
2019-03-23T04:10:54.021Z,2.47
2019-03-23T04:13:22.723Z,1.90
2019-03-23T04:15:51.413Z,2.63
2019-03-23T04:18:20.050Z,2.17
2019-03-23T04:20:48.687Z,2.30
2019-03-23T04:23:17.314Z,2.10
2019-03-23T04:25:45.932Z,2.50
2019-03-23T04:28:14.607Z,2.50
2019-03-23T04:30:43.315Z,2.47
2019-03-23T04:33:11.958Z,2.20
2019-03-23T04:35:40.596Z,2.30
2019-03-23T04:38:09.236Z,2.03
2019-03-23T04:40:38.175Z,2.80
2019-03-23T04:43:06.829Z,2.33
2019-03-23T04:45:35.456Z,2.63
2019-03-23T04:48:04.176Z,2.67
2019-03-23T04:50:33.113Z,2.40
2019-03-23T04:53:01.999Z,3.77
2019-03-23T04:55:30.880Z,2.27
2019-03-23T04:57:59.735Z,2.40
2019-03-23T05:00:28.425Z,2.43
2019-03-23T05:02:57.056Z,2.50
2019-03-23T05:05:25.676Z,2.67
2019-03-23T05:07:54.303Z,2.20
2019-03-23T05:10:22.923Z,2.60
2019-03-23T05:12:51.800Z,2.10
2019-03-23T05:15:20.667Z,2.20
2019-03-23T05:17:49.380Z,2.13
2019-03-23T05:20:25.326Z,2.47
2019-03-23T05:22:54.048Z,3.10
2019-03-23T05:25:23.736Z,2.93
2019-03-23T05:27:52.364Z,3.20
2019-03-23T05:30:20.988Z,3.80
2019-03-23T05:32:49.726Z,3.50
2019-03-23T05:35:18.330Z,3.37
2019-03-23T05:37:46.982Z,3.77
2019-03-23T05:40:15.647Z,3.70
2019-03-23T05:42:44.272Z,3.93
2019-03-23T05:45:12.975Z,3.97
2019-03-23T05:47:41.619Z,3.47
2019-03-23T05:50:10.381Z,4.10
2019-03-23T05:52:39.329Z,4.53
2019-03-23T05:55:08.043Z,5.03
2019-03-23T05:57:36.694Z,3.70
2019-03-23T06:00:05.643Z,3.70
2019-03-23T06:02:34.270Z,4.13
2019-03-23T06:05:02.929Z,5.43
2019-03-23T06:07:31.613Z,3.77
2019-03-23T06:10:00.345Z,3.67
2019-03-23T06:12:28.974Z,3.97
2019-03-23T06:14:57.621Z,4.00
2019-03-23T06:17:26.253Z,4.03
2019-03-23T06:19:55.124Z,3.33
2019-03-23T06:22:23.756Z,4.43
2019-03-23T06:24:52.402Z,4.03
2019-03-23T06:27:21.280Z,3.53
2019-03-23T06:29:49.916Z,3.63
2019-03-23T06:32:20.645Z,3.10
2019-03-23T06:34:48.926Z,3.40
2019-03-23T06:37:17.639Z,2.70
2019-03-23T06:39:46.526Z,2.63
2019-03-23T06:42:15.557Z,2.60
2019-03-23T06:44:44.192Z,2.70
2019-03-23T06:47:12.811Z,2.30
2019-03-23T06:49:41.477Z,2.23
2019-03-23T06:52:10.102Z,2.37
2019-03-23T06:54:38.807Z,2.90
2019-03-23T06:57:07.445Z,2.37
2019-03-23T06:59:36.446Z,2.80
2019-03-23T07:02:05.089Z,1.80
2019-03-23T07:04:34.052Z,2.37
2019-03-23T07:07:02.697Z,2.10
2019-03-23T07:09:31.339Z,1.87
2019-03-23T07:12:00.203Z,1.80
2019-03-23T07:14:28.843Z,1.93
2019-03-23T07:16:57.555Z,1.77
2019-03-23T07:19:26.207Z,1.93
2019-03-23T07:21:54.843Z,1.50
2019-03-23T07:24:23.482Z,2.07
2019-03-23T07:26:52.458Z,2.23
2019-03-23T07:29:21.166Z,2.20
2019-03-23T07:31:49.819Z,2.10
2019-03-23T07:34:18.470Z,2.20
2019-03-23T07:36:47.103Z,4.00
2019-03-23T07:39:26.455Z,11.13
2019-03-23T07:41:46.379Z,18.10
2019-03-23T07:44:15.878Z,20.17
2019-03-23T07:46:44.524Z,19.47
2019-03-23T07:49:13.262Z,20.70
2019-03-23T07:51:41.899Z,20.30
2019-03-23T07:54:10.529Z,21.17
2019-03-23T07:56:39.192Z,18.77
2019-03-23T07:59:07.903Z,18.80
2019-03-23T08:01:36.538Z,17.60
2019-03-23T08:04:05.316Z,17.50
2019-03-23T08:06:33.974Z,16.23
2019-03-23T08:09:04.172Z,16.10
2019-03-23T08:11:32.826Z,16.33
2019-03-23T08:14:01.804Z,16.00
2019-03-23T08:16:30.694Z,16.93
2019-03-23T08:18:59.333Z,14.63
2019-03-23T08:21:28.265Z,15.03
2019-03-23T08:23:56.899Z,15.00
2019-03-23T08:26:25.779Z,13.13
2019-03-23T08:28:54.400Z,14.83
2019-03-23T08:31:23.328Z,13.37
2019-03-23T08:33:52.244Z,11.17
2019-03-23T08:36:21.073Z,13.63
2019-03-23T08:38:51.677Z,12.17
2019-03-23T08:41:20.213Z,12.30
2019-03-23T08:43:49.189Z,10.60
2019-03-23T08:46:17.824Z,11.37
2019-03-23T08:48:46.745Z,10.23
2019-03-23T08:51:15.482Z,9.63
2019-03-23T08:53:44.136Z,10.03
2019-03-23T08:56:12.792Z,9.87
2019-03-23T08:58:40.734Z,9.00
2019-03-23T09:01:09.387Z,8.77
2019-03-23T09:03:38.257Z,9.23
2019-03-23T09:06:07.003Z,9.20
2019-03-23T09:08:35.711Z,8.70
2019-03-23T09:11:04.761Z,8.10
2019-03-23T09:13:40.496Z,7.90
2019-03-23T09:16:04.004Z,7.70
2019-03-23T09:18:32.653Z,7.23
2019-03-23T09:21:01.488Z,7.33
2019-03-23T09:23:30.167Z,8.90
2019-03-23T09:25:58.885Z,6.77
2019-03-23T09:28:27.655Z,8.23
2019-03-23T09:30:56.333Z,7.60
2019-03-23T09:33:25.040Z,7.70
2019-03-23T09:35:53.743Z,6.90
2019-03-23T09:38:22.380Z,7.07
2019-03-23T09:40:51.015Z,6.80
2019-03-23T09:43:19.739Z,6.83
2019-03-23T09:45:48.394Z,7.83
2019-03-23T09:48:17.047Z,6.37
2019-03-23T09:50:45.687Z,7.00
2019-03-23T09:53:14.339Z,7.93
2019-03-23T09:55:43.052Z,6.20
2019-03-23T09:58:11.765Z,6.00
2019-03-23T10:00:40.396Z,7.13
2019-03-23T10:03:09.052Z,7.33
2019-03-23T10:05:37.672Z,6.63
2019-03-23T10:08:06.576Z,5.97
2019-03-23T10:10:35.283Z,6.83
2019-03-23T10:13:04.016Z,6.93
2019-03-23T10:15:32.993Z,6.87
2019-03-23T10:18:02.127Z,5.73
2019-03-23T10:20:30.759Z,5.97
2019-03-23T10:22:59.548Z,6.13
2019-03-23T10:25:28.212Z,6.30
2019-03-23T10:27:56.848Z,6.77
2019-03-23T10:30:25.565Z,5.97
2019-03-23T10:32:54.344Z,5.50
2019-03-23T10:35:22.982Z,5.73
2019-03-23T10:37:51.649Z,5.63
2019-03-23T10:40:20.359Z,6.83
2019-03-23T10:42:49.012Z,7.10
2019-03-23T10:45:17.718Z,6.53
2019-03-23T10:47:46.454Z,6.17
2019-03-23T10:50:15.438Z,6.07
2019-03-23T10:52:44.497Z,5.43
2019-03-23T10:55:13.357Z,6.10
2019-03-23T10:57:41.995Z,5.30
2019-03-23T11:00:11.373Z,5.40
2019-03-23T11:02:40.033Z,5.93
2019-03-23T11:05:08.849Z,6.07
2019-03-23T11:07:37.563Z,5.47
2019-03-23T11:10:06.440Z,5.80
2019-03-23T11:12:37.080Z,6.00
2019-03-23T11:15:05.913Z,5.57
2019-03-23T11:17:34.568Z,5.37
2019-03-23T11:20:03.403Z,5.50
2019-03-23T11:22:32.045Z,6.60
2019-03-23T11:25:00.674Z,5.20
2019-03-23T11:27:29.306Z,5.70
2019-03-23T11:29:58.018Z,5.73
2019-03-23T11:32:26.729Z,5.70
2019-03-23T11:34:55.649Z,5.63
2019-03-23T11:37:24.399Z,5.30
2019-03-23T11:39:53.240Z,5.67
2019-03-23T11:42:21.893Z,5.10
2019-03-23T11:44:50.660Z,5.13
2019-03-23T11:47:19.312Z,5.00
2019-03-23T11:49:48.234Z,4.10
2019-03-23T11:52:16.908Z,5.57
2019-03-23T11:54:45.572Z,5.20
2019-03-23T11:57:14.279Z,4.93
2019-03-23T11:59:42.953Z,4.30
2019-03-23T12:02:11.693Z,4.83
2019-03-23T12:04:40.325Z,4.33
2019-03-23T12:07:09.030Z,3.63
2019-03-23T12:09:37.753Z,5.10
2019-03-23T12:12:06.451Z,4.27
2019-03-23T12:14:35.101Z,3.73
2019-03-23T12:17:03.795Z,4.20
2019-03-23T12:19:35.864Z,4.17
2019-03-23T12:22:04.583Z,4.57
2019-03-23T12:24:33.235Z,3.63
2019-03-23T12:27:01.955Z,3.90
2019-03-23T12:29:30.620Z,4.43
2019-03-23T12:31:59.248Z,4.33
2019-03-23T12:34:46.825Z,4.30
2019-03-23T12:37:15.447Z,4.30
2019-03-23T12:39:44.105Z,4.27
2019-03-23T12:42:12.748Z,3.60
2019-03-23T12:44:41.469Z,4.20
2019-03-23T12:47:10.265Z,4.07
2019-03-23T12:49:38.888Z,3.90
2019-03-23T12:52:07.523Z,3.80
2019-03-23T12:54:36.164Z,3.43
2019-03-23T12:57:04.789Z,4.43
2019-03-23T12:59:33.507Z,4.10
2019-03-23T13:02:02.229Z,3.77
2019-03-23T13:04:30.876Z,4.10
2019-03-23T13:06:59.590Z,3.20
2019-03-23T13:09:28.539Z,3.87
2019-03-23T13:11:57.153Z,2.93
2019-03-23T13:14:25.801Z,3.00
2019-03-23T13:16:54.413Z,3.40
2019-03-23T13:19:23.444Z,3.83
2019-03-23T13:21:52.165Z,3.60
2019-03-23T13:24:22.635Z,3.60
2019-03-23T13:26:51.146Z,3.27
2019-03-23T13:29:19.853Z,3.53
2019-03-23T13:31:48.514Z,3.80
2019-03-23T13:34:17.278Z,3.67
2019-03-23T13:36:45.928Z,4.30
2019-03-23T13:39:14.906Z,4.60
2019-03-23T13:41:50.444Z,3.70
2019-03-23T13:44:19.228Z,3.40
2019-03-23T13:46:48.524Z,3.63
2019-03-23T13:49:26.088Z,4.10
2019-03-23T13:51:54.733Z,3.43
2019-03-23T13:54:23.384Z,3.83
2019-03-23T13:56:52.088Z,4.00
2019-03-23T13:59:20.819Z,4.10
2019-03-23T14:01:49.443Z,3.67
2019-03-23T14:04:18.161Z,3.70
2019-03-23T14:06:46.800Z,3.40
2019-03-23T14:09:15.438Z,3.40
2019-03-23T14:11:54.471Z,3.70
2019-03-23T14:14:15.088Z,3.83
2019-03-23T14:16:43.803Z,3.73
2019-03-23T14:19:12.453Z,3.13
2019-03-23T14:21:41.430Z,3.40
2019-03-23T14:24:10.136Z,2.80
2019-03-23T14:27:08.872Z,3.00
2019-03-23T14:29:37.504Z,3.73
2019-03-23T14:32:06.386Z,4.43
2019-03-23T14:34:35.032Z,3.10
2019-03-23T14:37:03.761Z,3.43
2019-03-23T14:39:32.472Z,3.23
2019-03-23T14:42:04.888Z,3.10
2019-03-23T14:44:31.585Z,3.30
2019-03-23T14:47:00.220Z,3.40
2019-03-23T14:49:28.911Z,3.03
2019-03-23T14:51:57.868Z,3.10
2019-03-23T14:54:26.521Z,3.20
2019-03-23T14:56:55.140Z,2.70
2019-03-23T14:59:23.803Z,2.37
2019-03-23T15:01:52.463Z,2.83
2019-03-23T15:04:21.109Z,2.87
2019-03-23T15:06:49.733Z,2.50
2019-03-23T15:09:18.363Z,2.50
2019-03-23T15:11:47.324Z,2.70
2019-03-23T15:14:16.027Z,3.13
2019-03-23T15:16:44.699Z,2.77
2019-03-23T15:19:15.474Z,3.07
2019-03-23T15:21:43.696Z,2.90
2019-03-23T15:24:12.579Z,2.83
2019-03-23T15:26:41.239Z,2.80
2019-03-23T15:29:09.888Z,3.07
2019-03-23T15:31:38.547Z,3.13
2019-03-23T15:34:07.256Z,2.67
2019-03-23T15:36:35.972Z,2.50
2019-03-23T15:39:06.197Z,2.60
2019-03-23T15:41:34.860Z,3.10
2019-03-23T15:44:03.790Z,2.93
2019-03-23T15:46:32.454Z,2.53
2019-03-23T15:49:01.160Z,2.77
2019-03-23T15:51:29.847Z,2.87
2019-03-23T15:53:58.488Z,2.53
2019-03-23T15:56:27.122Z,2.90
2019-03-23T15:58:55.771Z,2.80
2019-03-23T16:01:24.491Z,2.63
2019-03-23T16:03:53.130Z,2.50
2019-03-23T16:07:01.688Z,3.23
2019-03-23T16:09:30.323Z,2.80
2019-03-23T16:11:59.223Z,2.20
2019-03-23T16:14:27.940Z,2.63
2019-03-23T16:16:56.574Z,2.70
2019-03-23T16:19:25.221Z,3.00
2019-03-23T16:21:53.927Z,2.40
2019-03-23T16:24:22.623Z,2.60
2019-03-23T16:26:51.250Z,2.73
2019-03-23T16:29:19.883Z,2.60
2019-03-23T16:31:48.577Z,3.27
2019-03-23T16:34:17.217Z,3.23
2019-03-23T16:36:45.912Z,2.83
2019-03-23T16:39:14.555Z,3.07
2019-03-23T16:41:43.483Z,2.50
2019-03-23T16:44:12.378Z,2.60
2019-03-23T16:46:40.999Z,3.07
2019-03-23T16:49:09.636Z,2.33
2019-03-23T16:51:38.620Z,2.90
2019-03-23T16:54:07.572Z,2.70
2019-03-23T16:56:36.293Z,2.80
2019-03-23T16:59:05.002Z,2.33
2019-03-23T17:01:33.728Z,2.87
2019-03-23T17:04:02.603Z,2.40
2019-03-23T17:06:31.311Z,2.40
2019-03-23T17:09:00.239Z,2.23
2019-03-23T17:11:28.947Z,2.10
2019-03-23T17:13:57.568Z,2.60
2019-03-23T17:16:26.272Z,2.53
2019-03-23T17:18:55.537Z,2.47
2019-03-23T17:21:24.180Z,3.20
2019-03-23T17:23:52.821Z,2.43
2019-03-23T17:26:21.547Z,3.83
2019-03-23T17:28:50.188Z,3.27
2019-03-23T17:31:19.066Z,3.70
2019-03-23T17:33:47.948Z,3.33
2019-03-23T17:36:16.600Z,3.33
2019-03-23T17:38:45.337Z,3.30
2019-03-23T17:41:14.203Z,3.80
2019-03-23T17:43:42.841Z,3.20
2019-03-23T17:46:11.566Z,2.63
2019-03-23T17:48:40.207Z,2.70
2019-03-23T17:51:08.967Z,2.50
2019-03-23T17:53:37.721Z,2.60
2019-03-23T17:56:06.559Z,2.30
2019-03-23T17:58:35.292Z,2.90
2019-03-23T18:01:04.998Z,2.63
2019-03-23T18:07:20.500Z,2.40
2019-03-23T18:09:49.389Z,2.87
2019-03-23T18:12:18.136Z,3.10
2019-03-23T18:14:46.788Z,3.07
2019-03-23T18:17:15.417Z,3.33
2019-03-23T18:19:44.040Z,3.47
2019-03-23T18:22:12.761Z,3.30
2019-03-23T18:24:41.810Z,3.43
2019-03-23T18:27:10.495Z,3.90
2019-03-23T18:29:39.224Z,3.90
2019-03-23T18:32:07.901Z,3.53
2019-03-23T18:34:36.821Z,3.93
2019-03-23T18:37:05.506Z,4.70
2019-03-23T18:39:34.476Z,4.50
2019-03-23T18:42:03.200Z,4.93
2019-03-23T18:44:31.903Z,4.30
2019-03-23T18:47:00.526Z,5.00
2019-03-23T18:49:29.533Z,5.70
2019-03-23T18:51:58.158Z,4.47
2019-03-23T18:54:26.809Z,4.60
2019-03-23T18:56:55.463Z,5.20
2019-03-23T18:59:24.092Z,5.03
2019-03-23T19:01:52.716Z,4.63
2019-03-23T19:04:21.624Z,5.40
2019-03-23T19:06:50.347Z,5.30
2019-03-23T19:09:19.329Z,5.03
2019-03-23T19:11:48.029Z,5.40
2019-03-23T19:14:16.967Z,5.40
2019-03-23T19:26:17.684Z,5.00
2019-03-23T19:28:46.312Z,5.07
2019-03-23T19:31:15.291Z,4.63
2019-03-23T19:33:44.247Z,5.50
2019-03-23T19:36:13.123Z,6.00
2019-03-23T19:38:41.991Z,6.60
2019-03-23T19:41:10.607Z,7.27
2019-03-23T19:43:48.343Z,6.00
2019-03-23T19:46:09.764Z,6.10
2019-03-23T19:48:38.403Z,5.37
2019-03-23T19:51:07.031Z,4.80
2019-03-23T19:53:36.232Z,5.23
2019-03-23T19:56:05.199Z,5.20
2019-03-23T19:58:33.817Z,5.50
2019-03-23T20:01:02.763Z,5.53
2019-03-23T20:03:31.388Z,4.57
2019-03-23T20:06:00.021Z,5.00
2019-03-23T20:08:28.655Z,5.10
2019-03-23T20:10:57.269Z,4.67
2019-03-23T20:13:25.904Z,4.40
2019-03-23T20:15:54.869Z,4.30
2019-03-23T20:18:23.744Z,4.67
2019-03-23T20:20:52.372Z,4.90
2019-03-23T20:23:20.999Z,4.47
2019-03-23T20:25:49.881Z,4.90
2019-03-23T20:28:18.591Z,4.50
2019-03-23T20:30:47.227Z,4.93
2019-03-23T20:39:24.880Z,3.87
2019-03-23T20:41:53.538Z,5.10
2019-03-23T20:44:22.215Z,4.40
2019-03-23T20:46:50.916Z,4.93
2019-03-23T20:49:19.714Z,4.40
2019-03-23T20:51:48.446Z,4.00
2019-03-23T20:54:17.139Z,4.40
2019-03-23T20:56:46.017Z,4.57
2019-03-23T20:59:14.892Z,4.50
2019-03-23T21:01:53.096Z,4.87
2019-03-23T21:04:21.719Z,4.77
2019-03-23T21:06:50.351Z,4.30
2019-03-23T21:09:18.986Z,4.07
2019-03-23T21:11:47.916Z,4.60
2019-03-23T21:14:20.351Z,4.47
2019-03-23T21:16:47.148Z,4.43
2019-03-23T21:19:40.140Z,4.70
2019-03-23T21:22:08.775Z,4.30
2019-03-23T21:24:37.402Z,4.20
2019-03-23T21:27:06.126Z,4.20
2019-03-23T21:29:34.761Z,4.70
2019-03-23T21:32:03.661Z,4.00
2019-03-23T21:34:32.292Z,4.23
2019-03-23T21:37:00.931Z,4.87
2019-03-23T21:39:29.579Z,4.20
2019-03-23T21:41:58.231Z,5.40
2019-03-23T21:44:30.830Z,4.73
2019-03-23T21:46:57.316Z,4.63
2019-03-23T21:49:25.951Z,4.33
2019-03-23T21:51:54.830Z,4.20
2019-03-23T21:54:23.480Z,4.70
2019-03-23T21:56:52.346Z,4.70
2019-03-23T21:59:20.974Z,3.93
2019-03-23T22:01:49.625Z,4.30
2019-03-23T22:04:18.500Z,4.60
2019-03-23T22:06:47.146Z,4.60
2019-03-23T22:09:16.017Z,4.90
2019-03-23T22:11:44.654Z,4.03
2019-03-23T22:14:13.279Z,4.00
2019-03-23T22:16:41.991Z,4.23
2019-03-23T22:19:10.616Z,4.87
2019-03-23T22:21:39.503Z,3.90
2019-03-23T22:24:08.138Z,4.03
2019-03-23T22:26:36.809Z,4.77
2019-03-23T22:29:05.504Z,5.00
2019-03-23T22:31:34.219Z,3.97
2019-03-23T22:34:02.848Z,4.07
2019-03-23T22:36:31.741Z,4.37
2019-03-23T22:39:00.399Z,4.47
2019-03-23T22:41:29.092Z,4.20
2019-03-23T22:43:57.717Z,4.17
2019-03-23T22:46:26.362Z,5.17
2019-03-23T22:48:55.079Z,4.17
2019-03-23T22:57:45.093Z,4.13
2019-03-23T23:00:15.692Z,3.70
2019-03-23T23:02:44.320Z,4.30
2019-03-23T23:05:13.022Z,3.87
2019-03-23T23:07:41.663Z,4.40
2019-03-23T23:10:10.459Z,3.50
2019-03-23T23:12:39.118Z,4.60
2019-03-23T23:15:07.902Z,4.70
2019-03-23T23:17:36.791Z,5.00
2019-03-23T23:20:05.510Z,4.77
2019-03-23T23:22:34.489Z,4.40
2019-03-23T23:25:03.335Z,4.23
2019-03-23T23:27:31.992Z,4.60
2019-03-23T23:30:00.599Z,4.73
2019-03-23T23:32:29.267Z,4.70
2019-03-23T23:34:58.224Z,4.27
2019-03-23T23:37:26.955Z,4.60
2019-03-23T23:39:56.110Z,5.03
2019-03-23T23:42:25.289Z,5.10
2019-03-23T23:44:54.425Z,4.47
2019-03-23T23:47:23.060Z,4.17
2019-03-23T23:49:51.698Z,4.37
2019-03-23T23:52:20.324Z,4.50
2019-03-23T23:54:48.944Z,4.63
2019-03-23T23:57:17.636Z,4.73
2019-03-23T23:59:46.269Z,4.30
